Aviation Digital Data Service (ADDS)

Output produced by TAFs form (0031 UTC 27 May 2017)
found at http://www.aviationweather.gov/adds/tafs/
 
KRIC 262336Z 2700/2724 28009KT P6SM SCT060 
     FM270200 VRB03KT P6SM SKC 
     FM271400 21008KT P6SM SCT070 
     FM271700 24011KT P6SM BKN060